Time,TemperatureF,DewpointF,PressureIn,WindDirection,WindDirectionDegrees,WindSpeedMPH,WindSpeedGustMPH,Humidity,HourlyPrecipIn,Conditions,Clouds,dailyrainin,SoftwareType,DateUTC
2017-10-23 00:01:00,63.3,30.5,30.06,ESE,112,2.5,3.8,29,0.00,,---,0.00,VWS V15.00,2017-10-23 04:01:00,
2017-10-23 00:06:00,63.3,30.5,30.06,ESE,112,2.5,2.5,29,0.00,,---,0.00,VWS V15.00,2017-10-23 04:06:00,
2017-10-23 00:11:00,63.5,29.8,30.03,ESE,112,3.4,3.4,28,0.00,,---,0.00,VWS V15.00,2017-10-23 04:11:00,
2017-10-23 00:16:00,63.5,29.8,30.03,ESE,112,3.4,3.4,28,0.00,,---,0.00,VWS V15.00,2017-10-23 04:16:00,
2017-10-23 00:21:00,63.5,29.8,30.03,SSE,158,0.0,3.8,28,0.00,,---,0.00,VWS V15.00,2017-10-23 04:21:00,
2017-10-23 00:26:00,63.9,30.1,30.03,SE,135,3.1,3.1,28,0.00,,---,0.00,VWS V15.00,2017-10-23 04:26:00,
2017-10-23 00:31:00,64.0,30.3,30.03,ESE,112,2.5,2.5,28,0.00,,---,0.00,VWS V15.00,2017-10-23 04:31:00,
2017-10-23 00:36:00,64.2,30.5,30.03,East,90,3.6,3.8,28,0.00,,---,0.00,VWS V15.00,2017-10-23 04:36:00,
2017-10-23 00:41:00,64.6,29.9,30.03,ENE,68,3.1,6.3,27,0.00,,---,0.00,VWS V15.00,2017-10-23 04:41:00,
2017-10-23 00:46:00,64.8,30.0,30.03,ESE,112,4.3,4.3,27,0.00,,---,0.00,VWS V15.00,2017-10-23 04:46:00,
2017-10-23 00:51:00,64.9,30.2,30.03,ESE,112,3.4,4.0,27,0.00,,---,0.00,VWS V15.00,2017-10-23 04:51:00,
2017-10-23 00:56:00,64.9,30.2,30.03,South,180,2.9,2.9,27,0.00,,---,0.00,VWS V15.00,2017-10-23 04:56:00,
2017-10-23 00:57:00,64.9,30.2,30.03,South,180,2.9,2.9,27,0.00,,---,0.00,VWS V15.00,2017-10-23 04:57:00,
2017-10-23 01:02:00,65.1,30.3,30.03,SSE,158,2.2,3.6,27,0.00,,---,0.00,VWS V15.00,2017-10-23 05:02:00,
2017-10-23 01:07:00,65.3,30.5,30.03,SE,135,4.3,4.3,27,0.00,,---,0.00,VWS V15.00,2017-10-23 05:07:00,
2017-10-23 01:12:00,65.3,30.5,30.03,South,180,3.6,3.6,27,0.00,,---,0.00,VWS V15.00,2017-10-23 05:12:00,
2017-10-23 01:17:00,65.3,30.5,30.03,SE,135,0.9,0.9,27,0.00,,---,0.00,VWS V15.00,2017-10-23 05:17:00,
2017-10-23 01:22:00,65.1,30.3,30.03,ESE,112,2.5,2.5,27,0.00,,---,0.00,VWS V15.00,2017-10-23 05:22:00,
2017-10-23 01:27:00,65.3,30.5,30.00,East,90,0.9,0.9,27,0.00,,---,0.00,VWS V15.00,2017-10-23 05:27:00,
2017-10-23 01:32:00,65.3,30.5,30.00,SSE,158,3.6,3.6,27,0.00,,---,0.00,VWS V15.00,2017-10-23 05:32:00,
2017-10-23 01:37:00,65.3,30.5,30.00,SSE,158,3.4,4.7,27,0.00,,---,0.00,VWS V15.00,2017-10-23 05:37:00,
2017-10-23 01:42:00,65.7,30.8,30.00,SE,135,4.3,4.3,27,0.00,,---,0.00,VWS V15.00,2017-10-23 05:42:00,
2017-10-23 01:47:00,65.8,31.0,30.00,SSE,158,0.0,0.0,27,0.00,,---,0.00,VWS V15.00,2017-10-23 05:47:00,
2017-10-23 01:52:00,65.8,31.0,30.00,SSE,158,2.7,2.7,27,0.00,,---,0.00,VWS V15.00,2017-10-23 05:52:00,
2017-10-23 01:57:00,65.8,31.0,30.00,SE,135,3.8,3.8,27,0.00,,---,0.00,VWS V15.00,2017-10-23 05:57:00,
2017-10-23 02:02:00,65.8,31.0,30.00,SSE,158,2.7,2.7,27,0.00,,---,0.00,VWS V15.00,2017-10-23 06:02:00,
2017-10-23 02:07:00,65.8,31.0,30.00,NE,45,0.9,2.0,27,0.00,,---,0.00,VWS V15.00,2017-10-23 06:07:00,
2017-10-23 02:12:00,65.8,31.0,30.00,SE,135,3.4,3.4,27,0.00,,---,0.00,VWS V15.00,2017-10-23 06:12:00,
2017-10-23 02:17:00,65.8,31.0,30.00,South,180,1.3,1.3,27,0.00,,---,0.00,VWS V15.00,2017-10-23 06:17:00,
2017-10-23 02:22:00,65.8,31.0,30.00,SE,135,2.7,2.7,27,0.00,,---,0.00,VWS V15.00,2017-10-23 06:22:00,
2017-10-23 02:27:00,66.0,31.1,30.00,ESE,112,3.1,3.1,27,0.00,,---,0.00,VWS V15.00,2017-10-23 06:27:00,
2017-10-23 02:32:00,66.0,31.1,30.00,South,180,0.9,2.0,27,0.00,,---,0.00,VWS V15.00,2017-10-23 06:32:00,
2017-10-23 02:37:00,65.8,31.0,30.00,SSE,158,0.0,2.2,27,0.00,,---,0.00,VWS V15.00,2017-10-23 06:37:00,
2017-10-23 02:42:00,65.8,31.0,30.00,SE,135,0.0,1.6,27,0.00,,---,0.00,VWS V15.00,2017-10-23 06:42:00,
2017-10-23 02:47:00,65.7,30.8,30.00,SE,135,3.4,3.4,27,0.00,,---,0.00,VWS V15.00,2017-10-23 06:47:00,
2017-10-23 02:52:00,65.7,31.7,30.00,SSE,158,2.0,2.5,28,0.00,,---,0.00,VWS V15.00,2017-10-23 06:52:00,
2017-10-23 02:56:00,65.7,31.7,30.03,SSE,158,0.9,2.5,28,0.00,,---,0.00,VWS V15.00,2017-10-23 06:56:00,
2017-10-23 03:01:00,65.7,31.7,30.03,SE,135,2.5,3.4,28,0.00,,---,0.00,VWS V15.00,2017-10-23 07:01:00,
2017-10-23 03:06:00,65.7,31.7,30.03,East,90,3.4,3.4,28,0.00,,---,0.00,VWS V15.00,2017-10-23 07:06:00,
2017-10-23 03:11:00,65.7,31.7,30.00,SE,135,2.2,2.2,28,0.00,,---,0.00,VWS V15.00,2017-10-23 07:11:00,
2017-10-23 03:16:00,65.7,31.7,30.00,ESE,112,1.3,3.1,28,0.00,,---,0.00,VWS V15.00,2017-10-23 07:16:00,
2017-10-23 03:21:00,65.7,31.7,30.00,ESE,112,1.3,1.3,28,0.00,,---,0.00,VWS V15.00,2017-10-23 07:21:00,
2017-10-23 03:26:00,65.5,31.5,29.97,SE,135,1.1,2.0,28,0.00,,---,0.00,VWS V15.00,2017-10-23 07:26:00,
2017-10-23 03:31:00,65.5,31.5,29.97,East,90,0.0,0.0,28,0.00,,---,0.00,VWS V15.00,2017-10-23 07:31:00,
2017-10-23 03:36:00,65.3,31.4,29.97,ESE,112,1.1,1.1,28,0.00,,---,0.00,VWS V15.00,2017-10-23 07:36:00,
2017-10-23 03:41:00,65.3,31.4,29.94,East,90,2.0,2.0,28,0.00,,---,0.00,VWS V15.00,2017-10-23 07:41:00,
2017-10-23 03:46:00,65.1,31.2,29.94,NNE,22,2.0,2.0,28,0.00,,---,0.00,VWS V15.00,2017-10-23 07:46:00,
2017-10-23 03:52:00,65.1,31.2,29.94,ESE,112,0.9,0.9,28,0.00,,---,1.09,VWS V15.00,2017-10-23 07:52:00,
2017-10-23 03:58:00,65.3,32.3,29.91,East,90,2.5,2.5,29,0.00,,---,99.99,VWS V15.00,2017-10-23 07:58:00,
2017-10-23 04:03:00,65.5,32.4,29.91,NNE,22,0.9,0.9,29,0.67,,---,99.99,VWS V15.00,2017-10-23 08:03:00,
2017-10-23 04:08:00,65.5,32.4,29.91,East,90,2.7,4.3,29,0.67,,---,99.99,VWS V15.00,2017-10-23 08:08:00,